sensor_id;sensor_type;location;lat;lon;timestamp;pressure;altitude;pressure_sealevel;temperature;humidity
63535;BME280;55128;50.230;18.944;2022-11-20T00:03:47;98154.91;;;-7.17;72.32
63535;BME280;55128;50.230;18.944;2022-11-20T00:08:48;98155.84;;;-7.14;71.94
63535;BME280;55128;50.230;18.944;2022-11-20T00:13:51;98144.53;;;-7.22;72.43
63535;BME280;55128;50.230;18.944;2022-11-20T00:18:53;98132.56;;;-7.18;72.59
63535;BME280;55128;50.230;18.944;2022-11-20T00:23:55;98142.47;;;-7.42;72.48
63535;BME280;55128;50.230;18.944;2022-11-20T00:28:58;98140.16;;;-7.28;73.05
63535;BME280;55128;50.230;18.944;2022-11-20T00:33:59;98147.59;;;-7.45;72.43
63535;BME280;55128;50.230;18.944;2022-11-20T00:38:59;98140.03;;;-7.35;73.46
63535;BME280;55128;50.230;18.944;2022-11-20T00:44:00;98129.78;;;-7.31;73.31
63535;BME280;55128;50.230;18.944;2022-11-20T00:49:01;98143.31;;;-7.44;71.41
63535;BME280;55128;50.230;18.944;2022-11-20T00:54:01;98134.91;;;-7.32;73.38
63535;BME280;55128;50.230;18.944;2022-11-20T00:59:02;98121.38;;;-7.20;73.57
63535;BME280;55128;50.230;18.944;2022-11-20T01:04:03;98123.50;;;-7.45;72.21
63535;BME280;55128;50.230;18.944;2022-11-20T01:09:07;98125.81;;;-7.60;72.55
63535;BME280;55128;50.230;18.944;2022-11-20T01:14:12;98116.81;;;-7.35;73.02
63535;BME280;55128;50.230;18.944;2022-11-20T01:19:21;98113.44;;;-7.31;72.77
63535;BME280;55128;50.230;18.944;2022-11-20T01:24:22;98121.25;;;-7.77;71.83
63535;BME280;55128;50.230;18.944;2022-11-20T01:29:24;98108.84;;;-7.49;72.31
63535;BME280;55128;50.230;18.944;2022-11-20T01:34:24;98099.97;;;-7.67;72.09
63535;BME280;55128;50.230;18.944;2022-11-20T01:39:26;98100.13;;;-7.57;70.87
63535;BME280;55128;50.230;18.944;2022-11-20T01:50:15;98079.63;;;-7.50;71.51
63535;BME280;55128;50.230;18.944;2022-11-20T01:55:23;98070.25;;;-7.46;72.00
63535;BME280;55128;50.230;18.944;2022-11-20T02:00:26;98076.19;;;-7.50;71.43
63535;BME280;55128;50.230;18.944;2022-11-20T02:05:32;98084.09;;;-7.41;71.14
63535;BME280;55128;50.230;18.944;2022-11-20T02:10:35;98092.69;;;-7.40;71.41
63535;BME280;55128;50.230;18.944;2022-11-20T02:15:35;98095.03;;;-7.53;72.18
63535;BME280;55128;50.230;18.944;2022-11-20T02:20:36;98098.63;;;-7.45;72.23
63535;BME280;55128;50.230;18.944;2022-11-20T02:25:38;98102.69;;;-7.57;71.59
63535;BME280;55128;50.230;18.944;2022-11-20T02:30:39;98114.81;;;-7.52;70.55
63535;BME280;55128;50.230;18.944;2022-11-20T02:35:44;98120.03;;;-7.47;71.68
63535;BME280;55128;50.230;18.944;2022-11-20T02:40:45;98125.22;;;-7.46;72.21
63535;BME280;55128;50.230;18.944;2022-11-20T02:45:45;98123.09;;;-7.70;71.82
63535;BME280;55128;50.230;18.944;2022-11-20T02:50:46;98116.47;;;-7.55;72.30
63535;BME280;55128;50.230;18.944;2022-11-20T02:55:47;98116.41;;;-7.58;71.59
63535;BME280;55128;50.230;18.944;2022-11-20T03:00:47;98113.91;;;-7.55;72.13
63535;BME280;55128;50.230;18.944;2022-11-20T03:05:48;98108.69;;;-7.60;71.81
63535;BME280;55128;50.230;18.944;2022-11-20T03:10:48;98120.72;;;-7.59;72.33
63535;BME280;55128;50.230;18.944;2022-11-20T03:15:49;98100.97;;;-7.57;72.46
63535;BME280;55128;50.230;18.944;2022-11-20T03:20:50;98113.06;;;-7.53;72.58
63535;BME280;55128;50.230;18.944;2022-11-20T03:25:50;98116.13;;;-7.77;72.43
63535;BME280;55128;50.230;18.944;2022-11-20T03:30:51;98111.91;;;-7.70;72.63
63535;BME280;55128;50.230;18.944;2022-11-20T03:35:51;98113.63;;;-7.71;71.83
63535;BME280;55128;50.230;18.944;2022-11-20T03:40:58;98113.00;;;-7.57;73.00
63535;BME280;55128;50.230;18.944;2022-11-20T03:45:59;98111.13;;;-7.66;72.08
63535;BME280;55128;50.230;18.944;2022-11-20T03:51:30;98123.91;;;-7.72;71.65
63535;BME280;55128;50.230;18.944;2022-11-20T03:56:33;98118.59;;;-7.82;71.60
63535;BME280;55128;50.230;18.944;2022-11-20T04:01:36;98114.50;;;-7.70;70.81
63535;BME280;55128;50.230;18.944;2022-11-20T04:06:39;98112.72;;;-7.74;71.46
63535;BME280;55128;50.230;18.944;2022-11-20T04:11:40;98113.59;;;-7.72;71.05
63535;BME280;55128;50.230;18.944;2022-11-20T04:16:41;98101.56;;;-7.73;72.26
63535;BME280;55128;50.230;18.944;2022-11-20T04:21:42;98096.41;;;-7.73;72.52
63535;BME280;55128;50.230;18.944;2022-11-20T04:26:43;98093.66;;;-7.84;72.64
63535;BME280;55128;50.230;18.944;2022-11-20T04:31:44;98092.56;;;-7.97;71.86
63535;BME280;55128;50.230;18.944;2022-11-20T04:36:44;98089.28;;;-7.87;72.37
63535;BME280;55128;50.230;18.944;2022-11-20T04:41:45;98079.22;;;-8.22;71.84
63535;BME280;55128;50.230;18.944;2022-11-20T04:46:45;98073.31;;;-8.16;71.22
63535;BME280;55128;50.230;18.944;2022-11-20T04:51:46;98071.09;;;-7.96;71.39
63535;BME280;55128;50.230;18.944;2022-11-20T04:56:50;98063.63;;;-7.82;72.09
63535;BME280;55128;50.230;18.944;2022-11-20T05:01:50;98068.50;;;-7.99;71.72
63535;BME280;55128;50.230;18.944;2022-11-20T05:06:51;98054.66;;;-8.04;71.00
63535;BME280;55128;50.230;18.944;2022-11-20T05:11:51;98050.25;;;-8.10;71.22
63535;BME280;55128;50.230;18.944;2022-11-20T05:16:52;98056.13;;;-8.17;71.00
63535;BME280;55128;50.230;18.944;2022-11-20T05:21:53;98044.28;;;-8.07;72.71
63535;BME280;55128;50.230;18.944;2022-11-20T05:26:53;98047.50;;;-8.19;71.03
63535;BME280;55128;50.230;18.944;2022-11-20T05:31:54;98048.34;;;-8.22;71.81
63535;BME280;55128;50.230;18.944;2022-11-20T05:36:54;98042.41;;;-8.17;70.80
63535;BME280;55128;50.230;18.944;2022-11-20T05:41:55;98041.53;;;-8.18;71.74
63535;BME280;55128;50.230;18.944;2022-11-20T05:47:14;98035.63;;;-8.12;71.41
63535;BME280;55128;50.230;18.944;2022-11-20T05:52:14;98033.06;;;-8.12;72.60
63535;BME280;55128;50.230;18.944;2022-11-20T05:57:15;98035.63;;;-8.12;71.85
63535;BME280;55128;50.230;18.944;2022-11-20T06:02:16;98037.25;;;-8.17;71.62
63535;BME280;55128;50.230;18.944;2022-11-20T06:07:16;98038.13;;;-8.15;72.08
63535;BME280;55128;50.230;18.944;2022-11-20T06:12:17;98034.66;;;-8.19;71.51
63535;BME280;55128;50.230;18.944;2022-11-20T06:17:18;98042.28;;;-8.24;70.72
63535;BME280;55128;50.230;18.944;2022-11-20T06:22:18;98047.69;;;-8.10;72.01
63535;BME280;55128;50.230;18.944;2022-11-20T06:27:19;98042.34;;;-8.21;72.11
63535;BME280;55128;50.230;18.944;2022-11-20T06:32:19;98048.16;;;-7.84;71.67
63535;BME280;55128;50.230;18.944;2022-11-20T06:37:20;98044.41;;;-7.49;71.08
63535;BME280;55128;50.230;18.944;2022-11-20T06:42:20;98031.03;;;-7.25;69.93
63535;BME280;55128;50.230;18.944;2022-11-20T06:47:21;98024.25;;;-7.20;70.64
63535;BME280;55128;50.230;18.944;2022-11-20T06:52:21;98017.97;;;-6.76;69.67
63535;BME280;55128;50.230;18.944;2022-11-20T06:57:22;98012.50;;;-6.28;69.40
63535;BME280;55128;50.230;18.944;2022-11-20T07:02:23;98011.59;;;-5.33;69.38
63535;BME280;55128;50.230;18.944;2022-11-20T07:07:23;98003.44;;;-2.69;67.44
63535;BME280;55128;50.230;18.944;2022-11-20T07:12:24;97999.72;;;-0.98;62.91
63535;BME280;55128;50.230;18.944;2022-11-20T07:17:24;98006.25;;;0.11;57.06
63535;BME280;55128;50.230;18.944;2022-11-20T07:22:25;97994.34;;;1.49;56.66
63535;BME280;55128;50.230;18.944;2022-11-20T07:27:26;98009.25;;;2.26;52.55
63535;BME280;55128;50.230;18.944;2022-11-20T07:32:27;98007.94;;;1.65;53.64
63535;BME280;55128;50.230;18.944;2022-11-20T07:37:27;98011.72;;;0.50;53.97
63535;BME280;55128;50.230;18.944;2022-11-20T07:42:28;98003.69;;;0.07;56.80
63535;BME280;55128;50.230;18.944;2022-11-20T07:47:29;98005.38;;;0.11;56.61
63535;BME280;55128;50.230;18.944;2022-11-20T07:52:34;98014.25;;;-0.03;58.24
63535;BME280;55128;50.230;18.944;2022-11-20T07:57:35;98008.75;;;-0.49;61.63
63535;BME280;55128;50.230;18.944;2022-11-20T08:02:42;98013.66;;;-0.25;62.38
63535;BME280;55128;50.230;18.944;2022-11-20T08:07:43;98023.03;;;1.05;60.44
63535;BME280;55128;50.230;18.944;2022-11-20T08:12:45;98019.78;;;2.23;58.58
63535;BME280;55128;50.230;18.944;2022-11-20T08:18:09;98032.75;;;0.43;60.26
63535;BME280;55128;50.230;18.944;2022-11-20T08:23:11;98038.00;;;-0.24;62.13
63535;BME280;55128;50.230;18.944;2022-11-20T08:28:11;98039.38;;;-0.68;63.42
63535;BME280;55128;50.230;18.944;2022-11-20T08:33:13;98037.41;;;-0.46;63.47
63535;BME280;55128;50.230;18.944;2022-11-20T08:38:14;98034.72;;;-0.42;63.71
63535;BME280;55128;50.230;18.944;2022-11-20T08:43:15;98043.44;;;-0.43;64.65
63535;BME280;55128;50.230;18.944;2022-11-20T08:48:15;98046.00;;;-0.40;65.06
63535;BME280;55128;50.230;18.944;2022-11-20T08:53:16;98040.25;;;0.04;65.34
63535;BME280;55128;50.230;18.944;2022-11-20T08:58:16;98034.00;;;0.17;64.67
63535;BME280;55128;50.230;18.944;2022-11-20T09:03:17;98025.34;;;0.13;64.87
63535;BME280;55128;50.230;18.944;2022-11-20T09:08:17;98023.38;;;0.29;65.44
63535;BME280;55128;50.230;18.944;2022-11-20T09:13:20;98029.81;;;0.64;65.40
63535;BME280;55128;50.230;18.944;2022-11-20T09:18:20;98022.78;;;0.68;65.01
63535;BME280;55128;50.230;18.944;2022-11-20T09:23:22;98027.66;;;0.88;63.79
63535;BME280;55128;50.230;18.944;2022-11-20T09:28:22;98026.00;;;0.84;64.27
63535;BME280;55128;50.230;18.944;2022-11-20T09:33:23;98019.78;;;0.92;64.34
63535;BME280;55128;50.230;18.944;2022-11-20T09:38:23;98017.59;;;1.16;64.37
63535;BME280;55128;50.230;18.944;2022-11-20T09:44:18;98008.50;;;1.37;64.24
63535;BME280;55128;50.230;18.944;2022-11-20T09:54:37;98001.09;;;1.59;62.44
63535;BME280;55128;50.230;18.944;2022-11-20T09:59:48;97990.00;;;3.34;58.30
63535;BME280;55128;50.230;18.944;2022-11-20T10:04:59;97993.78;;;2.53;58.67
63535;BME280;55128;50.230;18.944;2022-11-20T10:10:02;97995.66;;;1.68;61.36
63535;BME280;55128;50.230;18.944;2022-11-20T10:15:33;97993.56;;;1.44;62.03
63535;BME280;55128;50.230;18.944;2022-11-20T10:31:36;97967.91;;;2.41;59.64
63535;BME280;55128;50.230;18.944;2022-11-20T10:36:44;97967.16;;;2.36;61.11
63535;BME280;55128;50.230;18.944;2022-11-20T10:41:49;97965.66;;;2.25;60.42
63535;BME280;55128;50.230;18.944;2022-11-20T10:46:51;97956.88;;;2.62;59.50
63535;BME280;55128;50.230;18.944;2022-11-20T10:58:13;97945.81;;;2.51;59.70
63535;BME280;55128;50.230;18.944;2022-11-20T11:03:24;97928.25;;;2.89;58.33
63535;BME280;55128;50.230;18.944;2022-11-20T11:08:32;97932.88;;;3.14;58.33
63535;BME280;55128;50.230;18.944;2022-11-20T11:13:34;97928.25;;;3.53;58.14
63535;BME280;55128;50.230;18.944;2022-11-20T11:18:35;97934.41;;;2.88;58.58
63535;BME280;55128;50.230;18.944;2022-11-20T11:23:38;97940.81;;;2.42;60.70
63535;BME280;55128;50.230;18.944;2022-11-20T11:28:39;97934.06;;;3.00;59.54
63535;BME280;55128;50.230;18.944;2022-11-20T11:33:40;97938.69;;;2.90;58.73
63535;BME280;55128;50.230;18.944;2022-11-20T11:38:41;97939.31;;;2.31;60.93
63535;BME280;55128;50.230;18.944;2022-11-20T11:43:52;97933.88;;;2.75;60.80
63535;BME280;55128;50.230;18.944;2022-11-20T11:49:16;97913.63;;;2.82;59.11
63535;BME280;55128;50.230;18.944;2022-11-20T11:54:23;97911.06;;;2.08;61.44
63535;BME280;55128;50.230;18.944;2022-11-20T11:59:31;97908.09;;;2.24;61.21
63535;BME280;55128;50.230;18.944;2022-11-20T12:04:46;97907.69;;;2.03;62.01
63535;BME280;55128;50.230;18.944;2022-11-20T12:09:53;97904.31;;;2.34;61.92
63535;BME280;55128;50.230;18.944;2022-11-20T12:14:56;97906.69;;;2.45;62.01
63535;BME280;55128;50.230;18.944;2022-11-20T12:19:57;97896.28;;;2.42;62.02
63535;BME280;55128;50.230;18.944;2022-11-20T12:30:18;97885.13;;;2.35;62.60
63535;BME280;55128;50.230;18.944;2022-11-20T12:40:47;97857.16;;;2.01;63.61
63535;BME280;55128;50.230;18.944;2022-11-20T12:56:35;97836.91;;;2.08;64.15
63535;BME280;55128;50.230;18.944;2022-11-20T13:07:16;97835.84;;;1.79;65.18
63535;BME280;55128;50.230;18.944;2022-11-20T13:17:47;97821.44;;;1.61;65.86
63535;BME280;55128;50.230;18.944;2022-11-20T13:22:53;97816.25;;;1.60;66.35
63535;BME280;55128;50.230;18.944;2022-11-20T13:28:00;97819.00;;;1.53;66.90
63535;BME280;55128;50.230;18.944;2022-11-20T13:38:39;97815.44;;;1.19;67.83
63535;BME280;55128;50.230;18.944;2022-11-20T13:43:41;97810.28;;;1.14;68.01
63535;BME280;55128;50.230;18.944;2022-11-20T13:48:46;97801.53;;;1.16;67.37
63535;BME280;55128;50.230;18.944;2022-11-20T13:59:46;97791.53;;;1.35;67.42
63535;BME280;55128;50.230;18.944;2022-11-20T14:04:51;97782.69;;;1.41;67.61
63535;BME280;55128;50.230;18.944;2022-11-20T14:09:56;97786.09;;;1.45;67.73
63535;BME280;55128;50.230;18.944;2022-11-20T14:14:58;97784.16;;;1.53;67.42
63535;BME280;55128;50.230;18.944;2022-11-20T14:20:11;97788.25;;;1.63;66.87
63535;BME280;55128;50.230;18.944;2022-11-20T14:30:17;97793.59;;;1.59;67.23
63535;BME280;55128;50.230;18.944;2022-11-20T14:35:26;97773.63;;;1.56;67.12
63535;BME280;55128;50.230;18.944;2022-11-20T14:40:35;97775.72;;;1.40;67.94
63535;BME280;55128;50.230;18.944;2022-11-20T14:45:37;97788.97;;;1.32;68.00
63535;BME280;55128;50.230;18.944;2022-11-20T14:50:39;97783.38;;;1.09;69.13
63535;BME280;55128;50.230;18.944;2022-11-20T14:55:40;97772.06;;;1.10;69.17
63535;BME280;55128;50.230;18.944;2022-11-20T15:00:41;97765.81;;;1.17;69.23
63535;BME280;55128;50.230;18.944;2022-11-20T15:05:47;97755.53;;;1.09;69.49
63535;BME280;55128;50.230;18.944;2022-11-20T15:10:50;97762.34;;;1.16;69.36
63535;BME280;55128;50.230;18.944;2022-11-20T15:15:54;97762.09;;;1.26;68.99
63535;BME280;55128;50.230;18.944;2022-11-20T15:21:02;97755.03;;;1.29;69.28
63535;BME280;55128;50.230;18.944;2022-11-20T15:26:11;97752.53;;;1.26;69.53
63535;BME280;55128;50.230;18.944;2022-11-20T15:31:13;97762.00;;;1.30;69.95
63535;BME280;55128;50.230;18.944;2022-11-20T15:36:14;97759.28;;;1.35;69.37
63535;BME280;55128;50.230;18.944;2022-11-20T15:41:15;97759.22;;;1.38;70.12
63535;BME280;55128;50.230;18.944;2022-11-20T15:46:17;97758.97;;;1.49;69.62
63535;BME280;55128;50.230;18.944;2022-11-20T15:51:34;97747.59;;;1.50;69.48
63535;BME280;55128;50.230;18.944;2022-11-20T15:56:35;97748.41;;;1.52;70.15
63535;BME280;55128;50.230;18.944;2022-11-20T16:01:36;97746.75;;;1.49;70.08
63535;BME280;55128;50.230;18.944;2022-11-20T16:06:36;97740.41;;;1.60;69.56
63535;BME280;55128;50.230;18.944;2022-11-20T16:11:37;97743.72;;;1.66;69.59
63535;BME280;55128;50.230;18.944;2022-11-20T16:16:38;97744.53;;;1.68;69.31
63535;BME280;55128;50.230;18.944;2022-11-20T16:21:41;97740.22;;;1.67;69.92
63535;BME280;55128;50.230;18.944;2022-11-20T16:26:42;97740.09;;;1.72;70.24
63535;BME280;55128;50.230;18.944;2022-11-20T16:31:42;97750.34;;;1.81;70.44
63535;BME280;55128;50.230;18.944;2022-11-20T16:36:43;97744.94;;;1.87;70.20
63535;BME280;55128;50.230;18.944;2022-11-20T16:41:45;97740.97;;;2.07;69.92
63535;BME280;55128;50.230;18.944;2022-11-20T16:46:45;97742.66;;;2.08;69.96
63535;BME280;55128;50.230;18.944;2022-11-20T16:51:46;97736.09;;;1.91;70.09
63535;BME280;55128;50.230;18.944;2022-11-20T16:56:46;97739.03;;;1.81;70.39
63535;BME280;55128;50.230;18.944;2022-11-20T17:01:47;97737.09;;;1.51;71.26
63535;BME280;55128;50.230;18.944;2022-11-20T17:06:48;97745.38;;;1.33;71.35
63535;BME280;55128;50.230;18.944;2022-11-20T17:11:48;97754.56;;;1.13;71.57
63535;BME280;55128;50.230;18.944;2022-11-20T17:16:49;97747.97;;;0.95;71.68
63535;BME280;55128;50.230;18.944;2022-11-20T17:21:50;97736.03;;;0.84;73.59
63535;BME280;55128;50.230;18.944;2022-11-20T17:26:50;97730.19;;;0.72;74.29
63535;BME280;55128;50.230;18.944;2022-11-20T17:31:52;97724.13;;;0.70;74.43
63535;BME280;55128;50.230;18.944;2022-11-20T17:36:53;97721.56;;;0.67;74.87
63535;BME280;55128;50.230;18.944;2022-11-20T17:41:54;97711.31;;;0.58;75.00
63535;BME280;55128;50.230;18.944;2022-11-20T17:47:13;97703.56;;;0.55;75.74
63535;BME280;55128;50.230;18.944;2022-11-20T17:52:15;97692.38;;;0.48;75.93
63535;BME280;55128;50.230;18.944;2022-11-20T17:57:15;97701.22;;;0.41;76.03
63535;BME280;55128;50.230;18.944;2022-11-20T18:02:35;97681.38;;;0.34;75.75
63535;BME280;55128;50.230;18.944;2022-11-20T18:07:35;97674.47;;;0.30;76.66
63535;BME280;55128;50.230;18.944;2022-11-20T18:12:37;97694.31;;;0.38;75.96
63535;BME280;55128;50.230;18.944;2022-11-20T18:17:38;97697.13;;;0.29;76.91
63535;BME280;55128;50.230;18.944;2022-11-20T18:22:39;97699.91;;;0.20;77.23
63535;BME280;55128;50.230;18.944;2022-11-20T18:27:39;97690.13;;;0.31;77.25
63535;BME280;55128;50.230;18.944;2022-11-20T18:32:40;97699.06;;;0.19;77.44
63535;BME280;55128;50.230;18.944;2022-11-20T18:37:40;97695.53;;;0.22;77.40
63535;BME280;55128;50.230;18.944;2022-11-20T18:42:41;97690.13;;;0.31;77.53
63535;BME280;55128;50.230;18.944;2022-11-20T18:48:00;97697.41;;;0.15;78.40
63535;BME280;55128;50.230;18.944;2022-11-20T18:53:00;97702.31;;;0.31;77.90
63535;BME280;55128;50.230;18.944;2022-11-20T18:58:01;97690.19;;;0.28;78.11
63535;BME280;55128;50.230;18.944;2022-11-20T19:03:02;97694.50;;;0.29;78.36
63535;BME280;55128;50.230;18.944;2022-11-20T19:08:02;97696.25;;;0.30;78.40
63535;BME280;55128;50.230;18.944;2022-11-20T19:13:03;97681.38;;;0.34;77.99
63535;BME280;55128;50.230;18.944;2022-11-20T19:18:04;97684.13;;;0.26;77.42
63535;BME280;55128;50.230;18.944;2022-11-20T19:23:04;97680.75;;;0.21;76.86
63535;BME280;55128;50.230;18.944;2022-11-20T19:28:05;97687.81;;;0.16;77.50
63535;BME280;55128;50.230;18.944;2022-11-20T19:33:06;97688.56;;;0.23;77.30
63535;BME280;55128;50.230;18.944;2022-11-20T19:38:06;97692.72;;;0.31;77.25
63535;BME280;55128;50.230;18.944;2022-11-20T19:43:07;97701.16;;;0.46;76.67
63535;BME280;55128;50.230;18.944;2022-11-20T19:48:08;97695.66;;;0.58;76.74
63535;BME280;55128;50.230;18.944;2022-11-20T19:53:08;97697.00;;;0.77;76.46
63535;BME280;55128;50.230;18.944;2022-11-20T19:58:10;97682.28;;;0.73;76.31
63535;BME280;55128;50.230;18.944;2022-11-20T20:03:11;97677.94;;;0.72;76.25
63535;BME280;55128;50.230;18.944;2022-11-20T20:08:12;97677.28;;;0.64;76.18
63535;BME280;55128;50.230;18.944;2022-11-20T20:13:13;97684.13;;;0.68;76.32
63535;BME280;55128;50.230;18.944;2022-11-20T20:18:13;97681.31;;;0.77;76.35
63535;BME280;55128;50.230;18.944;2022-11-20T20:23:14;97683.13;;;0.75;76.13
63535;BME280;55128;50.230;18.944;2022-11-20T20:28:15;97685.78;;;0.72;76.48
63535;BME280;55128;50.230;18.944;2022-11-20T20:33:15;97676.94;;;0.80;76.82
63535;BME280;55128;50.230;18.944;2022-11-20T20:38:16;97673.28;;;0.87;76.97
63535;BME280;55128;50.230;18.944;2022-11-20T20:43:17;97670.25;;;1.05;77.00
63535;BME280;55128;50.230;18.944;2022-11-20T20:48:19;97664.69;;;1.19;76.72
63535;BME280;55128;50.230;18.944;2022-11-20T20:53:20;97665.31;;;1.29;76.44
63535;BME280;55128;50.230;18.944;2022-11-20T20:58:21;97667.72;;;1.38;76.10
63535;BME280;55128;50.230;18.944;2022-11-20T21:03:21;97676.16;;;1.49;76.12
63535;BME280;55128;50.230;18.944;2022-11-20T21:08:23;97688.97;;;1.60;76.04
63535;BME280;55128;50.230;18.944;2022-11-20T21:13:24;97696.44;;;1.74;75.79
63535;BME280;55128;50.230;18.944;2022-11-20T21:18:25;97699.97;;;1.73;75.89
63535;BME280;55128;50.230;18.944;2022-11-20T21:23:26;97687.91;;;1.67;76.17
63535;BME280;55128;50.230;18.944;2022-11-20T21:28:29;97693.00;;;1.72;75.98
63535;BME280;55128;50.230;18.944;2022-11-20T21:33:43;97679.56;;;1.86;75.95
63535;BME280;55128;50.230;18.944;2022-11-20T21:38:44;97678.72;;;1.85;75.65
63535;BME280;55128;50.230;18.944;2022-11-20T21:43:45;97691.97;;;1.79;75.54
63535;BME280;55128;50.230;18.944;2022-11-20T21:48:46;97700.63;;;1.81;75.73
63535;BME280;55128;50.230;18.944;2022-11-20T21:53:48;97699.41;;;1.94;75.58
63535;BME280;55128;50.230;18.944;2022-11-20T21:58:49;97696.91;;;1.90;75.89
63535;BME280;55128;50.230;18.944;2022-11-20T22:03:54;97686.22;;;1.99;75.85
63535;BME280;55128;50.230;18.944;2022-11-20T22:08:56;97692.91;;;2.09;75.41
63535;BME280;55128;50.230;18.944;2022-11-20T22:13:57;97689.41;;;2.10;75.23
63535;BME280;55128;50.230;18.944;2022-11-20T22:19:17;97697.56;;;1.98;75.38
63535;BME280;55128;50.230;18.944;2022-11-20T22:24:19;97705.47;;;1.95;75.98
63535;BME280;55128;50.230;18.944;2022-11-20T22:29:20;97708.63;;;2.08;75.91
63535;BME280;55128;50.230;18.944;2022-11-20T22:34:21;97700.53;;;2.17;75.90
63535;BME280;55128;50.230;18.944;2022-11-20T22:39:21;97702.22;;;2.20;75.73
63535;BME280;55128;50.230;18.944;2022-11-20T22:44:22;97705.56;;;2.25;76.15
63535;BME280;55128;50.230;18.944;2022-11-20T22:49:22;97702.78;;;2.31;76.04
63535;BME280;55128;50.230;18.944;2022-11-20T22:54:23;97712.28;;;2.35;76.04
63535;BME280;55128;50.230;18.944;2022-11-20T22:59:23;97714.66;;;2.44;76.25
63535;BME280;55128;50.230;18.944;2022-11-20T23:04:24;97704.03;;;2.49;76.23
63535;BME280;55128;50.230;18.944;2022-11-20T23:09:25;97720.44;;;2.56;75.92
63535;BME280;55128;50.230;18.944;2022-11-20T23:14:25;97722.09;;;2.58;76.08
63535;BME280;55128;50.230;18.944;2022-11-20T23:19:26;97722.88;;;2.62;75.73
63535;BME280;55128;50.230;18.944;2022-11-20T23:24:26;97716.59;;;2.67;75.33
63535;BME280;55128;50.230;18.944;2022-11-20T23:29:27;97710.00;;;2.54;76.15
63535;BME280;55128;50.230;18.944;2022-11-20T23:34:27;97715.13;;;2.57;75.74
63535;BME280;55128;50.230;18.944;2022-11-20T23:39:28;97719.63;;;2.53;76.18
63535;BME280;55128;50.230;18.944;2022-11-20T23:44:28;97718.84;;;2.50;76.02
63535;BME280;55128;50.230;18.944;2022-11-20T23:49:29;97702.69;;;2.34;75.61
63535;BME280;55128;50.230;18.944;2022-11-20T23:54:29;97692.03;;;2.40;75.94
63535;BME280;55128;50.230;18.944;2022-11-20T23:59:30;97709.41;;;2.44;75.37
